createdAt,value
2023-04-02T00:00:17.060Z,100088.34
2023-04-02T00:01:19.464Z,100092.84
2023-04-02T00:01:41.346Z,100079.25
2023-04-02T00:02:32.083Z,100089.72
2023-04-02T00:03:03.567Z,100095.25
2023-04-02T00:03:25.518Z,100089.91
2023-04-02T00:04:05.669Z,100097.03
2023-04-02T00:04:30.182Z,100093.50
2023-04-02T00:05:26.225Z,100096.94
2023-04-02T00:05:52.586Z,100095.25
2023-04-02T00:06:40.009Z,100095.25
2023-04-02T00:07:30.911Z,100099.59
2023-04-02T00:07:58.100Z,100093.66
2023-04-02T00:08:27.442Z,100102.25
2023-04-02T00:08:49.244Z,100102.19
2023-04-02T00:09:23.891Z,100096.88
2023-04-02T00:09:47.199Z,100104.88
2023-04-02T00:10:26.454Z,100101.25
2023-04-02T00:10:50.380Z,100090.97
2023-04-02T00:11:29.395Z,100109.25
2023-04-02T00:11:55.662Z,100089.91
2023-04-02T00:12:19.476Z,100096.94
2023-04-02T00:12:58.653Z,100111.69
2023-04-02T00:13:26.424Z,100109.88
2023-04-02T00:13:48.267Z,100114.34
2023-04-02T00:14:16.414Z,100091.94
2023-04-02T00:14:38.120Z,100108.16
2023-04-02T00:15:01.175Z,100117.09
2023-04-02T00:15:22.920Z,100096.41
2023-04-02T00:15:47.246Z,100101.66
2023-04-02T00:16:14.654Z,100104.00
2023-04-02T00:16:36.337Z,100113.41
2023-04-02T00:17:00.055Z,100116.94
2023-04-02T00:17:26.784Z,100109.09
2023-04-02T00:17:48.389Z,100120.47
2023-04-02T00:18:14.138Z,100122.34
2023-04-02T00:18:42.249Z,100118.81
2023-04-02T00:19:09.574Z,100108.41
2023-04-02T00:19:36.212Z,100115.22
2023-04-02T00:20:01.067Z,100119.84
2023-04-02T00:21:21.286Z,100125.72
2023-04-02T00:21:47.964Z,100110.25
2023-04-02T00:22:15.715Z,100129.31
2023-04-02T00:22:45.427Z,100119.44
2023-04-02T00:23:07.215Z,100120.53
2023-04-02T00:23:28.892Z,100103.38
2023-04-02T00:23:50.618Z,100103.63
2023-04-02T00:24:17.180Z,100131.28
2023-04-02T00:24:39.314Z,100134.81
2023-04-02T00:25:07.673Z,100131.22
2023-04-02T00:25:35.385Z,100137.47
2023-04-02T00:25:57.185Z,100131.16
2023-04-02T00:26:23.137Z,100130.41
2023-04-02T00:26:48.057Z,100131.38
2023-04-02T00:27:12.790Z,100141.88
2023-04-02T00:27:36.040Z,100130.66
2023-04-02T00:27:57.628Z,100134.88
2023-04-02T00:28:23.453Z,100139.38
2023-04-02T00:28:45.317Z,100142.88
2023-04-02T00:29:12.088Z,100140.22
2023-04-02T00:29:33.712Z,100144.63
2023-04-02T00:30:00.036Z,100136.53
2023-04-02T00:30:22.083Z,100143.69
2023-04-02T00:30:54.278Z,100139.47
2023-04-02T00:31:19.595Z,100149.00
2023-04-02T00:31:43.210Z,100141.00
2023-04-02T00:32:05.061Z,100145.41
2023-04-02T00:32:32.021Z,100140.06
2023-04-02T00:32:54.848Z,100141.00
2023-04-02T00:33:19.282Z,100134.88
2023-04-02T00:33:43.702Z,100132.31
2023-04-02T00:34:09.203Z,100141.00
2023-04-02T00:34:33.908Z,100147.97
2023-04-02T00:34:56.314Z,100137.41
2023-04-02T00:35:22.793Z,100140.16
2023-04-02T00:35:45.016Z,100146.19
2023-04-02T00:36:09.813Z,100129.91
2023-04-02T00:36:34.632Z,100141.81
2023-04-02T00:36:56.672Z,100141.00
2023-04-02T00:37:23.950Z,100152.38
2023-04-02T00:37:46.103Z,100144.47
2023-04-02T00:38:18.746Z,100147.16
2023-04-02T00:38:43.709Z,100151.63
2023-04-02T00:39:14.064Z,100150.75
2023-04-02T00:39:39.102Z,100149.00
2023-04-02T00:40:07.080Z,100143.06
2023-04-02T00:40:31.636Z,100152.63
2023-04-02T00:40:56.850Z,100149.09
2023-04-02T00:41:23.236Z,100143.94
2023-04-02T00:41:47.591Z,100141.50
2023-04-02T00:42:12.658Z,100156.06
2023-04-02T00:42:35.887Z,100153.41
2023-04-02T00:43:01.147Z,100163.16
2023-04-02T00:43:24.966Z,100154.34
2023-04-02T00:43:50.669Z,100162.41
2023-04-02T00:44:13.625Z,100161.66
2023-04-02T00:44:43.128Z,100157.25
2023-04-02T00:45:07.078Z,100160.94
2023-04-02T00:45:31.164Z,100152.78
2023-04-02T00:45:56.698Z,100153.56
2023-04-02T00:46:25.193Z,100164.09
2023-04-02T00:46:49.572Z,100162.28
2023-04-02T00:47:17.397Z,100147.59
2023-04-02T00:47:41.616Z,100166.81
2023-04-02T00:48:20.958Z,100166.88
2023-04-02T00:48:49.280Z,100161.47
2023-04-02T00:49:18.034Z,100153.03
2023-04-02T00:49:43.562Z,100158.34
2023-04-02T00:50:18.586Z,100161.09
2023-04-02T00:50:42.737Z,100174.38
2023-04-02T00:51:14.398Z,100158.44
2023-04-02T00:51:45.260Z,100165.56
2023-04-02T00:52:08.813Z,100170.91
2023-04-02T00:52:32.981Z,100169.03
2023-04-02T00:52:57.358Z,100175.06
2023-04-02T00:53:25.072Z,100169.72
2023-04-02T00:53:48.930Z,100172.47
2023-04-02T00:54:15.886Z,100170.59
2023-04-02T00:54:42.499Z,100156.31
2023-04-02T00:55:14.281Z,100174.38
2023-04-02T00:55:39.210Z,100184.00
2023-04-02T00:56:03.273Z,100177.09
2023-04-02T00:56:28.713Z,100182.59
2023-04-02T00:56:54.552Z,100185.88
2023-04-02T00:57:22.835Z,100165.88
2023-04-02T00:57:45.548Z,100187.44
2023-04-02T00:58:27.929Z,100185.88
2023-04-02T00:58:53.049Z,100186.13
2023-04-02T00:59:24.933Z,100181.88
2023-04-02T00:59:55.928Z,100191.53
2023-04-02T01:00:29.197Z,100189.97
2023-04-02T01:00:52.341Z,100184.78
2023-04-02T01:01:22.791Z,100188.44
2023-04-02T01:01:54.149Z,100191.97
2023-04-02T01:02:27.884Z,100193.22
2023-04-02T01:03:28.668Z,100197.53
2023-04-02T01:03:58.213Z,100193.13
2023-04-02T01:04:34.452Z,100194.38
2023-04-02T01:04:57.736Z,100197.91
2023-04-02T01:05:23.664Z,100203.03
2023-04-02T01:05:48.203Z,100199.56
2023-04-02T01:06:14.290Z,100205.69
2023-04-02T01:06:38.936Z,100204.00
2023-04-02T01:07:05.074Z,100206.84
2023-04-02T01:07:52.390Z,100198.22
2023-04-02T01:08:22.713Z,100205.41
2023-04-02T01:08:55.964Z,100209.75
2023-04-02T01:09:29.854Z,100189.81
2023-04-02T01:10:16.895Z,100209.88
2023-04-02T01:10:53.955Z,100209.97
2023-04-02T01:11:32.737Z,100213.84
2023-04-02T01:12:19.674Z,100209.63
2023-04-02T01:12:54.599Z,100193.84
2023-04-02T01:13:26.624Z,100220.91
2023-04-02T01:13:56.869Z,100214.72
2023-04-02T01:14:26.755Z,100218.47
2023-04-02T01:14:57.746Z,100221.78
2023-04-02T01:15:24.202Z,100220.09
2023-04-02T01:15:53.260Z,100220.97
2023-04-02T01:16:24.141Z,100172.81
2023-04-02T01:16:54.105Z,100219.47
2023-04-02T01:17:30.535Z,100224.72
2023-04-02T01:18:18.078Z,100219.63
2023-04-02T01:18:53.553Z,100225.44
2023-04-02T01:19:40.180Z,100217.53
2023-04-02T01:20:22.978Z,100220.19
2023-04-02T01:21:17.707Z,100221.97
2023-04-02T01:21:55.896Z,100227.28
2023-04-02T01:22:22.995Z,100209.22
2023-04-02T01:22:52.157Z,100230.91
2023-04-02T01:23:17.343Z,100231.75
2023-04-02T01:23:52.973Z,100235.25
2023-04-02T01:24:16.455Z,100234.28
2023-04-02T01:24:38.738Z,100233.25
2023-04-02T01:25:01.135Z,100229.81
2023-04-02T01:25:28.513Z,100227.16
2023-04-02T01:25:58.955Z,100233.34
2023-04-02T01:26:34.841Z,100232.19
2023-04-02T01:26:59.258Z,100227.81
2023-04-02T01:27:27.372Z,100241.19
2023-04-02T01:27:56.283Z,100239.00
2023-04-02T01:28:22.501Z,100243.63
2023-04-02T01:29:10.655Z,100239.44
2023-04-02T01:29:34.388Z,100234.13
2023-04-02T01:29:58.374Z,100233.84
2023-04-02T01:30:21.173Z,100234.91
2023-04-02T01:30:47.156Z,100241.72
2023-04-02T01:31:10.583Z,100239.88
2023-04-02T01:31:34.668Z,100241.56
2023-04-02T01:32:00.768Z,100237.00
2023-04-02T01:32:26.394Z,100239.94
2023-04-02T01:32:49.457Z,100243.41
2023-04-02T01:33:12.491Z,100249.53
2023-04-02T01:33:36.012Z,100240.75
2023-04-02T01:33:59.359Z,100253.91
2023-04-02T01:34:25.990Z,100250.38
2023-04-02T01:34:50.976Z,100257.44
2023-04-02T01:35:12.905Z,100253.03
2023-04-02T01:35:44.142Z,100249.72
2023-04-02T01:36:11.757Z,100252.59
2023-04-02T01:36:40.774Z,100260.47
2023-04-02T01:37:16.845Z,100260.31
2023-04-02T01:37:49.473Z,100257.13
2023-04-02T01:38:18.119Z,100258.78
2023-04-02T01:38:47.744Z,100255.25
2023-04-02T01:39:22.100Z,100257.00
2023-04-02T01:39:59.048Z,100251.22
2023-04-02T01:40:34.253Z,100264.25
2023-04-02T01:41:04.711Z,100252.81
2023-04-02T01:41:34.789Z,100263.25
2023-04-02T01:42:04.047Z,100263.59
2023-04-02T01:42:34.100Z,100259.84
2023-04-02T01:43:04.666Z,100266.19
2023-04-02T01:43:30.996Z,100254.97
2023-04-02T01:43:58.301Z,100263.44
2023-04-02T01:44:27.802Z,100248.97
2023-04-02T01:44:53.069Z,100270.50
2023-04-02T01:45:17.802Z,100262.59
2023-04-02T01:45:39.679Z,100268.72
2023-04-02T01:46:06.767Z,100268.00
2023-04-02T01:46:32.737Z,100267.44
2023-04-02T01:46:55.525Z,100270.06
2023-04-02T01:47:19.755Z,100261.56
2023-04-02T01:47:44.420Z,100269.25
2023-04-02T01:48:13.077Z,100270.88
2023-04-02T01:48:34.834Z,100280.41
2023-04-02T01:48:57.210Z,100281.13
2023-04-02T01:49:22.249Z,100284.59
2023-04-02T01:49:44.788Z,100275.44
2023-04-02T01:50:20.927Z,100258.91
2023-04-02T01:50:45.880Z,100280.97
2023-04-02T01:51:08.463Z,100279.13
2023-04-02T01:51:32.968Z,100271.19
2023-04-02T01:51:56.691Z,100285.41
2023-04-02T01:52:33.621Z,100285.16
2023-04-02T01:52:59.605Z,100280.69
2023-04-02T01:53:23.026Z,100285.88
2023-04-02T01:53:44.772Z,100279.63
2023-04-02T01:54:07.595Z,100258.16
2023-04-02T01:54:30.021Z,100257.16
2023-04-02T01:54:54.271Z,100282.28
2023-04-02T01:55:24.810Z,100283.88
2023-04-02T01:55:48.926Z,100293.78
2023-04-02T01:56:11.266Z,100282.28
2023-04-02T01:56:35.499Z,100292.94
2023-04-02T01:56:57.873Z,100298.47
2023-04-02T01:57:20.041Z,100294.81
2023-04-02T01:57:46.078Z,100290.41
2023-04-02T01:58:11.340Z,100299.38
2023-04-02T01:58:33.684Z,100292.28
2023-04-02T01:58:58.904Z,100296.66
2023-04-02T01:59:24.651Z,100293.06
2023-04-02T01:59:51.739Z,100300.19
2023-04-02T02:00:17.797Z,100297.38
2023-04-02T02:00:49.703Z,100300.84
2023-04-02T02:01:16.736Z,100305.31
2023-04-02T02:01:44.491Z,100300.25
2023-04-02T02:02:09.216Z,100302.41
2023-04-02T02:02:33.435Z,100302.34
2023-04-02T02:02:55.338Z,100296.94
2023-04-02T02:03:19.957Z,100310.22
2023-04-02T02:03:43.637Z,100305.72
2023-04-02T02:04:07.095Z,100302.19
2023-04-02T02:04:29.453Z,100300.66
2023-04-02T02:04:52.443Z,100304.13
2023-04-02T02:05:16.291Z,100304.13
2023-04-02T02:05:40.904Z,100308.59
2023-04-02T02:06:03.132Z,100302.59
2023-04-02T02:06:26.004Z,100316.56
2023-04-02T02:06:48.302Z,100312.91
2023-04-02T02:07:16.642Z,100294.81
2023-04-02T02:07:42.129Z,100321.03
2023-04-02T02:08:09.242Z,100320.22
2023-04-02T02:08:38.365Z,100322.97
2023-04-02T02:09:04.961Z,100320.16
2023-04-02T02:09:30.243Z,100321.88
2023-04-02T02:09:53.047Z,100320.09
2023-04-02T02:10:17.896Z,100304.81
2023-04-02T02:10:39.568Z,100316.22
2023-04-02T02:11:02.786Z,100325.00
2023-04-02T02:11:29.283Z,100317.09
2023-04-02T02:11:51.657Z,100326.06
2023-04-02T02:12:14.932Z,100329.50
2023-04-02T02:12:36.607Z,100324.41
2023-04-02T02:13:00.209Z,100306.78
2023-04-02T02:13:23.836Z,100325.72
2023-04-02T02:13:47.070Z,100340.56
2023-04-02T02:14:15.510Z,100317.69
2023-04-02T02:14:47.107Z,100329.66
2023-04-02T02:15:16.219Z,100306.38
2023-04-02T02:15:37.958Z,100330.59
2023-04-02T02:16:00.927Z,100343.84
2023-04-02T02:16:24.462Z,100337.69
2023-04-02T02:16:47.293Z,100327.94
2023-04-02T02:17:16.480Z,100337.59
2023-04-02T02:17:38.613Z,100323.72
2023-04-02T02:18:05.488Z,100317.44
2023-04-02T02:18:28.468Z,100339.13
2023-04-02T02:18:53.433Z,100337.50
2023-04-02T02:19:23.950Z,100335.66
2023-04-02T02:19:48.772Z,100344.50
2023-04-02T02:20:12.481Z,100349.09
2023-04-02T02:20:34.935Z,100352.00
2023-04-02T02:20:59.539Z,100345.88
2023-04-02T02:21:30.922Z,100314.50
2023-04-02T02:21:54.709Z,100341.56
2023-04-02T02:22:23.218Z,100332.03
2023-04-02T02:22:47.898Z,100344.13
2023-04-02T02:23:12.659Z,100354.63
2023-04-02T02:23:34.540Z,100354.53
2023-04-02T02:23:57.172Z,100342.28
2023-04-02T02:24:22.138Z,100352.78
2023-04-02T02:24:46.558Z,100358.09
2023-04-02T02:25:14.162Z,100317.53
2023-04-02T02:25:37.097Z,100352.78
2023-04-02T02:25:59.075Z,100348.47
2023-04-02T02:26:23.429Z,100353.78
2023-04-02T02:26:48.471Z,100349.84
2023-04-02T02:27:43.906Z,100361.09
2023-04-02T02:28:11.126Z,100360.63
2023-04-02T02:28:39.056Z,100365.06
2023-04-02T02:29:04.596Z,100342.41
2023-04-02T02:29:29.158Z,100364.06
2023-04-02T02:29:57.075Z,100369.13
2023-04-02T02:30:24.586Z,100366.44
2023-04-02T02:30:49.573Z,100365.69
2023-04-02T02:31:19.208Z,100359.50
2023-04-02T02:31:46.060Z,100352.50
2023-04-02T02:32:11.824Z,100371.88
2023-04-02T02:32:39.681Z,100369.13
2023-04-02T02:33:07.690Z,100372.72
2023-04-02T02:33:34.324Z,100365.59
2023-04-02T02:34:03.095Z,100373.53
2023-04-02T02:34:33.281Z,100373.72
2023-04-02T02:35:02.102Z,100368.41
2023-04-02T02:35:29.108Z,100368.69
2023-04-02T02:35:58.371Z,100384.19
2023-04-02T02:36:28.704Z,100382.38
2023-04-02T02:36:56.551Z,100379.81
2023-04-02T02:37:24.206Z,100377.59
2023-04-02T02:37:51.975Z,100381.88
2023-04-02T02:38:44.129Z,100386.56
2023-04-02T02:39:18.898Z,100384.16
2023-04-02T02:39:46.612Z,100385.22
2023-04-02T02:40:16.097Z,100379.31
2023-04-02T02:40:43.687Z,100388.75
2023-04-02T02:41:14.890Z,100390.38
2023-04-02T02:41:41.835Z,100388.59
2023-04-02T02:42:13.140Z,100359.00
2023-04-02T02:42:39.095Z,100387.53
2023-04-02T02:43:05.060Z,100388.59
2023-04-02T02:43:27.887Z,100380.91
2023-04-02T02:43:57.721Z,100385.94
2023-04-02T02:44:24.979Z,100396.75
2023-04-02T02:44:49.007Z,100387.03
2023-04-02T02:45:16.297Z,100387.03
2023-04-02T02:45:41.440Z,100391.22
2023-04-02T02:46:06.062Z,100398.19
2023-04-02T02:46:31.413Z,100396.25
2023-04-02T02:46:56.761Z,100403.16
2023-04-02T02:47:22.080Z,100394.25
2023-04-02T02:47:46.323Z,100383.09
2023-04-02T02:48:14.060Z,100396.38
2023-04-02T02:48:39.259Z,100396.53
2023-04-02T02:49:04.479Z,100376.47
2023-04-02T02:49:30.675Z,100391.06
2023-04-02T02:49:58.989Z,100389.56
2023-04-02T02:50:24.399Z,100401.75
2023-04-02T02:50:47.210Z,100409.91
2023-04-02T02:51:18.069Z,100383.56
2023-04-02T02:51:45.335Z,100404.72
2023-04-02T02:52:17.107Z,100403.94
2023-04-02T02:52:50.852Z,100394.31
2023-04-02T02:53:17.929Z,100403.81
2023-04-02T02:53:49.241Z,100405.47
2023-04-02T02:54:11.270Z,100405.69
2023-04-02T02:54:35.065Z,100410.88
2023-04-02T02:55:01.392Z,100401.97
2023-04-02T02:55:34.675Z,100411.50
2023-04-02T02:56:20.478Z,100409.81
2023-04-02T02:56:49.005Z,100409.38
2023-04-02T02:57:14.340Z,100404.75
2023-04-02T02:57:39.950Z,100416.13
2023-04-02T02:58:06.875Z,100412.72
2023-04-02T02:58:36.157Z,100413.19
2023-04-02T02:59:13.386Z,100411.22
2023-04-02T02:59:38.124Z,100416.53
2023-04-02T03:00:01.675Z,100418.28
2023-04-02T03:00:28.336Z,100401.59
2023-04-02T03:00:52.232Z,100409.38
2023-04-02T03:01:14.041Z,100424.19
2023-04-02T03:01:38.445Z,100415.13
2023-04-02T03:02:03.722Z,100419.47
2023-04-02T03:02:27.738Z,100424.75
2023-04-02T03:02:52.913Z,100425.88
2023-04-02T03:03:19.388Z,100424.19
2023-04-02T03:03:47.511Z,100418.16
2023-04-02T03:04:10.674Z,100420.75
2023-04-02T03:04:35.632Z,100423.22
2023-04-02T03:05:02.706Z,100423.88
2023-04-02T03:05:27.833Z,100429.19
2023-04-02T03:05:55.216Z,100424.63
2023-04-02T03:06:20.700Z,100428.88
2023-04-02T03:06:50.200Z,100434.00
2023-04-02T03:07:11.838Z,100401.28
2023-04-02T03:07:34.342Z,100423.09
2023-04-02T03:07:58.422Z,100425.84
2023-04-02T03:08:29.517Z,100426.97
2023-04-02T03:09:01.414Z,100421.09
2023-04-02T03:09:36.887Z,100428.78
2023-04-02T03:10:05.753Z,100438.78
2023-04-02T03:10:36.547Z,100435.00
2023-04-02T03:11:05.002Z,100436.38
2023-04-02T03:11:33.432Z,100439.25
2023-04-02T03:12:04.315Z,100439.59
2023-04-02T03:12:41.527Z,100423.69
2023-04-02T03:13:12.032Z,100446.25
2023-04-02T03:13:36.808Z,100436.56
2023-04-02T03:14:08.110Z,100427.06
2023-04-02T03:14:34.847Z,100439.09
2023-04-02T03:15:03.812Z,100452.09
2023-04-02T03:15:35.927Z,100448.00
2023-04-02T03:16:02.657Z,100452.09
2023-04-02T03:16:32.036Z,100440.09
2023-04-02T03:17:00.868Z,100449.53
2023-04-02T03:17:30.597Z,100455.91
2023-04-02T03:17:57.992Z,100452.31
2023-04-02T03:18:31.484Z,100455.84
2023-04-02T03:19:01.074Z,100455.81
2023-04-02T03:19:31.492Z,100455.91
2023-04-02T03:19:59.498Z,100461.97
2023-04-02T03:20:28.177Z,100452.31
2023-04-02T03:20:57.066Z,100454.97
2023-04-02T03:21:28.441Z,100460.13
2023-04-02T03:21:57.095Z,100426.97
2023-04-02T03:22:24.036Z,100464.34
2023-04-02T03:22:53.397Z,100461.72
2023-04-02T03:23:20.501Z,100457.84
2023-04-02T03:23:47.610Z,100465.56
2023-04-02T03:24:17.555Z,100471.66
2023-04-02T03:24:46.921Z,100467.91
2023-04-02T03:25:24.258Z,100472.31
2023-04-02T03:25:51.521Z,100474.00
2023-04-02T03:26:18.812Z,100472.19
2023-04-02T03:26:44.675Z,100466.97
2023-04-02T03:27:14.346Z,100478.31
2023-04-02T03:27:40.735Z,100469.41
2023-04-02T03:28:06.229Z,100481.50
2023-04-02T03:28:33.127Z,100474.41
2023-04-02T03:29:00.963Z,100475.97
2023-04-02T03:29:27.368Z,100476.75
2023-04-02T03:30:01.760Z,100484.63
2023-04-02T03:30:35.174Z,100482.75
2023-04-02T03:31:01.117Z,100487.88
2023-04-02T03:31:27.898Z,100480.84
2023-04-02T03:31:54.809Z,100487.81
2023-04-02T03:32:21.610Z,100491.66
2023-04-02T03:32:46.665Z,100483.63
2023-04-02T03:33:14.405Z,100483.75
2023-04-02T03:33:40.195Z,100490.88
2023-04-02T03:34:10.741Z,100491.94
2023-04-02T03:34:37.063Z,100491.72
2023-04-02T03:35:03.407Z,100493.72
2023-04-02T03:35:29.066Z,100486.47
2023-04-02T03:35:59.120Z,100489.94
2023-04-02T03:36:28.506Z,100477.78
2023-04-02T03:36:57.764Z,100492.44
2023-04-02T03:37:26.123Z,100494.31
2023-04-02T03:37:53.137Z,100499.25
2023-04-02T03:38:20.941Z,100493.78
2023-04-02T03:38:46.070Z,100494.59
2023-04-02T03:39:15.759Z,100498.91
2023-04-02T03:39:42.727Z,100500.19
2023-04-02T03:40:11.061Z,100503.59
2023-04-02T03:40:38.374Z,100499.22
2023-04-02T03:41:05.031Z,100501.66
2023-04-02T03:41:38.821Z,100509.63
2023-04-02T03:42:08.210Z,100516.06
2023-04-02T03:42:39.390Z,100516.06
2023-04-02T03:43:06.416Z,100483.13
2023-04-02T03:43:35.574Z,100520.63
2023-04-02T03:44:00.586Z,100510.97
2023-04-02T03:44:28.305Z,100516.94
2023-04-02T03:44:56.567Z,100518.69
2023-04-02T03:45:23.586Z,100517.16
2023-04-02T03:45:51.589Z,100518.22
2023-04-02T03:46:24.831Z,100491.38
2023-04-02T03:46:52.022Z,100527.13
2023-04-02T03:47:19.947Z,100528.22
2023-04-02T03:47:47.376Z,100520.25
2023-04-02T03:48:16.058Z,100523.81
2023-04-02T03:48:43.515Z,100500.25
2023-04-02T03:49:10.702Z,100518.22
2023-04-02T03:49:38.448Z,100521.50
2023-04-02T03:50:03.175Z,100526.69
2023-04-02T03:50:31.625Z,100493.88
2023-04-02T03:50:59.595Z,100530.38
2023-04-02T03:51:25.283Z,100521.59
2023-04-02T03:51:53.134Z,100520.72
2023-04-02T03:52:27.760Z,100514.06
2023-04-02T03:52:51.938Z,100528.75
2023-04-02T03:53:13.786Z,100499.19
2023-04-02T03:53:35.734Z,100532.00
2023-04-02T03:53:59.301Z,100534.53
2023-04-02T03:54:21.987Z,100534.44
2023-04-02T03:54:53.501Z,100532.69
2023-04-02T03:55:20.015Z,100536.81
2023-04-02T03:55:44.684Z,100529.72
2023-04-02T03:56:21.045Z,100530.63
2023-04-02T03:56:47.401Z,100511.59
2023-04-02T03:57:26.514Z,100538.44
2023-04-02T03:57:57.684Z,100534.06
2023-04-02T03:58:27.082Z,100538.69
2023-04-02T03:58:56.429Z,100541.47
2023-04-02T03:59:25.216Z,100547.38
2023-04-02T03:59:56.278Z,100545.53
2023-04-02T04:00:26.033Z,100525.63
2023-04-02T04:01:00.411Z,100547.16
2023-04-02T04:01:29.791Z,100554.09
2023-04-02T04:01:58.808Z,100554.81
2023-04-02T04:02:34.456Z,100551.13
2023-04-02T04:03:02.356Z,100562.06
2023-04-02T04:03:29.458Z,100560.00
2023-04-02T04:03:54.904Z,100552.03
2023-04-02T04:04:20.240Z,100556.59
2023-04-02T04:04:45.178Z,100556.47
2023-04-02T04:05:21.192Z,100556.38
2023-04-02T04:05:49.455Z,100545.09
2023-04-02T04:06:17.389Z,100560.63
2023-04-02T04:06:43.186Z,100553.13
2023-04-02T04:07:09.440Z,100562.38
2023-04-02T04:07:35.575Z,100560.63
2023-04-02T04:08:03.367Z,100564.88
2023-04-02T04:08:34.311Z,100566.56
2023-04-02T04:09:00.864Z,100565.69
2023-04-02T04:09:27.025Z,100571.25
2023-04-02T04:09:52.499Z,100576.28
2023-04-02T04:10:19.852Z,100557.34
2023-04-02T04:10:43.887Z,100576.22
2023-04-02T04:11:10.460Z,100574.50
2023-04-02T04:11:35.471Z,100576.22
2023-04-02T04:12:08.104Z,100571.78
2023-04-02T04:12:34.730Z,100570.81
2023-04-02T04:13:04.499Z,100576.06
2023-04-02T04:13:31.256Z,100581.34
2023-04-02T04:13:57.675Z,100579.56
2023-04-02T04:14:28.454Z,100577.81
2023-04-02T04:14:58.148Z,100553.63
2023-04-02T04:15:26.200Z,100562.38
2023-04-02T04:15:56.464Z,100586.75
2023-04-02T04:16:22.519Z,100577.34
2023-04-02T04:16:49.896Z,100581.59
2023-04-02T04:17:23.851Z,100587.91
2023-04-02T04:17:55.332Z,100588.69
2023-04-02T04:18:35.218Z,100583.34
2023-04-02T04:19:06.653Z,100587.63
2023-04-02T04:19:38.337Z,100600.19
2023-04-02T04:20:08.236Z,100597.56
2023-04-02T04:20:35.933Z,100591.66
2023-04-02T04:21:01.174Z,100580.84
2023-04-02T04:21:38.334Z,100577.88
2023-04-02T04:22:11.090Z,100597.34
2023-04-02T04:22:34.016Z,100597.41
2023-04-02T04:23:16.751Z,100600.00
2023-04-02T04:23:41.892Z,100593.66
2023-04-02T04:24:16.309Z,100599.75
2023-04-02T04:24:39.384Z,100597.84
2023-04-02T04:25:04.368Z,100593.59
2023-04-02T04:25:30.639Z,100585.84
2023-04-02T04:26:01.944Z,100589.44
2023-04-02T04:26:31.106Z,100601.56
2023-04-02T04:27:04.260Z,100607.00
2023-04-02T04:27:35.098Z,100603.63
2023-04-02T04:28:10.505Z,100610.03
2023-04-02T04:28:43.447Z,100610.00
2023-04-02T04:29:19.640Z,100605.56
2023-04-02T04:29:50.336Z,100614.31
2023-04-02T04:30:19.524Z,100612.69
2023-04-02T04:30:50.988Z,100606.47
2023-04-02T04:31:24.591Z,100609.13
2023-04-02T04:31:55.111Z,100603.00
2023-04-02T04:32:32.282Z,100620.34
2023-04-02T04:33:04.948Z,100619.03
2023-04-02T04:33:34.497Z,100619.78
2023-04-02T04:34:09.223Z,100632.97
2023-04-02T04:34:46.708Z,100625.91
2023-04-02T04:35:22.015Z,100601.47
2023-04-02T04:35:48.712Z,100632.84
2023-04-02T04:36:27.656Z,100633.06
2023-04-02T04:37:01.541Z,100629.53
2023-04-02T04:37:33.464Z,100614.91
2023-04-02T04:37:59.166Z,100631.34
2023-04-02T04:38:32.941Z,100633.94
2023-04-02T04:39:00.435Z,100639.16
2023-04-02T04:39:30.759Z,100640.38
2023-04-02T04:39:58.769Z,100615.44
2023-04-02T04:40:24.374Z,100633.56
2023-04-02T04:40:54.122Z,100643.53
2023-04-02T04:41:25.777Z,100630.97
2023-04-02T04:41:49.820Z,100641.34
2023-04-02T04:42:19.869Z,100644.00
2023-04-02T04:42:44.890Z,100641.44
2023-04-02T04:43:12.302Z,100644.09
2023-04-02T04:43:43.847Z,100641.28
2023-04-02T04:44:15.522Z,100650.88
2023-04-02T04:44:50.268Z,100649.06
2023-04-02T04:45:23.207Z,100643.69
2023-04-02T04:45:50.637Z,100651.91
2023-04-02T04:46:21.563Z,100657.03
2023-04-02T04:46:47.022Z,100652.66
2023-04-02T04:47:13.381Z,100654.38
2023-04-02T04:47:40.697Z,100654.25
2023-04-02T04:48:07.953Z,100657.09
2023-04-02T04:48:36.484Z,100656.19
2023-04-02T04:49:05.468Z,100637.22
2023-04-02T04:49:36.938Z,100656.31
2023-04-02T04:50:04.159Z,100659.16
2023-04-02T04:50:32.895Z,100662.59
2023-04-02T04:50:59.069Z,100647.13
2023-04-02T04:51:27.988Z,100664.34
2023-04-02T04:51:54.572Z,100624.50
2023-04-02T04:52:21.150Z,100665.19
2023-04-02T04:52:43.835Z,100652.84
2023-04-02T04:53:14.827Z,100668.50
2023-04-02T04:53:47.105Z,100652.66
2023-04-02T04:54:13.053Z,100675.19
2023-04-02T04:54:40.370Z,100677.09
2023-04-02T04:55:23.847Z,100669.94
2023-04-02T04:55:48.416Z,100675.19
2023-04-02T04:56:19.356Z,100667.16
2023-04-02T04:56:49.784Z,100667.41
2023-04-02T04:57:25.816Z,100677.75
2023-04-02T04:57:50.962Z,100643.06
2023-04-02T04:58:21.177Z,100681.19
2023-04-02T04:58:49.222Z,100683.03
2023-04-02T04:59:18.858Z,100673.31
2023-04-02T04:59:45.864Z,100685.59
2023-04-02T05:00:17.746Z,100673.78
2023-04-02T05:00:50.232Z,100686.03
2023-04-02T05:01:19.285Z,100687.91
2023-04-02T05:01:46.702Z,100690.44
2023-04-02T05:02:16.118Z,100689.44
2023-04-02T05:02:45.824Z,100692.94
2023-04-02T05:03:17.337Z,100697.25
2023-04-02T05:03:47.353Z,100692.81
2023-04-02T05:04:14.674Z,100692.94
2023-04-02T05:04:39.130Z,100693.88
2023-04-02T05:05:07.225Z,100701.72
2023-04-02T05:05:33.886Z,100696.34
2023-04-02T05:06:08.844Z,100701.47
2023-04-02T05:06:38.026Z,100703.25
2023-04-02T05:07:06.112Z,100707.63
2023-04-02T05:07:30.160Z,100705.78
2023-04-02T05:07:57.896Z,100704.97
2023-04-02T05:08:27.398Z,100704.22
2023-04-02T05:08:52.454Z,100699.06
2023-04-02T05:09:20.034Z,100712.22
2023-04-02T05:09:46.974Z,100697.22
2023-04-02T05:10:17.288Z,100705.22
2023-04-02T05:10:43.787Z,100714.88
2023-04-02T05:11:10.769Z,100717.50
2023-04-02T05:11:37.374Z,100719.19
2023-04-02T05:12:08.000Z,100718.41
2023-04-02T05:12:35.269Z,100705.34
2023-04-02T05:13:07.276Z,100712.19
2023-04-02T05:13:37.117Z,100722.66
2023-04-02T05:14:04.905Z,100720.19
2023-04-02T05:14:36.290Z,100706.41
2023-04-02T05:15:04.094Z,100724.09
2023-04-02T05:15:30.120Z,100719.66
2023-04-02T05:16:02.245Z,100724.88
2023-04-02T05:16:32.274Z,100725.66
2023-04-02T05:17:01.053Z,100726.44
2023-04-02T05:17:28.191Z,100726.41
2023-04-02T05:17:57.756Z,100722.41
2023-04-02T05:18:26.493Z,100736.06
2023-04-02T05:18:56.587Z,100738.59
2023-04-02T05:19:26.249Z,100734.06
2023-04-02T05:19:54.206Z,100734.97
2023-04-02T05:20:24.259Z,100733.13
2023-04-02T05:20:53.078Z,100739.31
2023-04-02T05:21:20.548Z,100736.56
2023-04-02T05:21:49.582Z,100735.56
2023-04-02T05:22:24.340Z,100738.06
2023-04-02T05:22:50.917Z,100731.97